sensor_id;sensor_type;location;lat;lon;timestamp;P1;durP1;ratioP1;P2;durP2;ratioP2
15708;SDS011;7954;51.914;8.420;2022-09-12T00:01:06;6.23;;;5.73;;
15708;SDS011;7954;51.914;8.420;2022-09-12T00:03:36;6.20;;;5.70;;
15708;SDS011;7954;51.914;8.420;2022-09-12T00:06:09;6.97;;;6.37;;
15708;SDS011;7954;51.914;8.420;2022-09-12T00:08:39;6.30;;;5.70;;
15708;SDS011;7954;51.914;8.420;2022-09-12T00:11:08;5.40;;;5.00;;
15708;SDS011;7954;51.914;8.420;2022-09-12T00:13:37;5.97;;;5.47;;
15708;SDS011;7954;51.914;8.420;2022-09-12T00:16:11;5.23;;;4.83;;
15708;SDS011;7954;51.914;8.420;2022-09-12T00:18:41;6.23;;;5.63;;
15708;SDS011;7954;51.914;8.420;2022-09-12T00:21:12;6.30;;;5.80;;
15708;SDS011;7954;51.914;8.420;2022-09-12T00:23:43;5.87;;;5.37;;
15708;SDS011;7954;51.914;8.420;2022-09-12T00:26:12;6.03;;;5.53;;
15708;SDS011;7954;51.914;8.420;2022-09-12T00:28:40;6.30;;;5.80;;
15708;SDS011;7954;51.914;8.420;2022-09-12T00:31:09;6.13;;;5.63;;
15708;SDS011;7954;51.914;8.420;2022-09-12T00:33:39;6.00;;;5.50;;
15708;SDS011;7954;51.914;8.420;2022-09-12T00:36:08;6.20;;;5.70;;
15708;SDS011;7954;51.914;8.420;2022-09-12T00:38:37;5.73;;;5.23;;
15708;SDS011;7954;51.914;8.420;2022-09-12T00:41:09;6.03;;;5.50;;
15708;SDS011;7954;51.914;8.420;2022-09-12T00:43:42;6.53;;;5.93;;
15708;SDS011;7954;51.914;8.420;2022-09-12T00:46:13;6.27;;;5.67;;
15708;SDS011;7954;51.914;8.420;2022-09-12T00:48:49;5.70;;;5.30;;
15708;SDS011;7954;51.914;8.420;2022-09-12T00:51:20;6.10;;;5.60;;
15708;SDS011;7954;51.914;8.420;2022-09-12T00:53:49;6.30;;;5.80;;
15708;SDS011;7954;51.914;8.420;2022-09-12T00:56:21;6.47;;;5.87;;
15708;SDS011;7954;51.914;8.420;2022-09-12T00:58:52;6.13;;;5.63;;
15708;SDS011;7954;51.914;8.420;2022-09-12T01:01:22;5.90;;;5.40;;
15708;SDS011;7954;51.914;8.420;2022-09-12T01:03:57;6.40;;;5.90;;
15708;SDS011;7954;51.914;8.420;2022-09-12T01:06:26;6.97;;;6.37;;
15708;SDS011;7954;51.914;8.420;2022-09-12T01:08:58;5.87;;;5.40;;
15708;SDS011;7954;51.914;8.420;2022-09-12T01:11:30;5.80;;;5.30;;
15708;SDS011;7954;51.914;8.420;2022-09-12T01:14:01;6.23;;;5.73;;
15708;SDS011;7954;51.914;8.420;2022-09-12T01:16:28;6.27;;;5.67;;
15708;SDS011;7954;51.914;8.420;2022-09-12T01:19:01;6.40;;;5.87;;
15708;SDS011;7954;51.914;8.420;2022-09-12T01:21:44;5.90;;;5.40;;
15708;SDS011;7954;51.914;8.420;2022-09-12T01:24:29;5.87;;;5.47;;
15708;SDS011;7954;51.914;8.420;2022-09-12T01:27:13;6.10;;;5.50;;
15708;SDS011;7954;51.914;8.420;2022-09-12T01:33:05;6.10;;;5.60;;
15708;SDS011;7954;51.914;8.420;2022-09-12T01:35:54;5.70;;;5.20;;
15708;SDS011;7954;51.914;8.420;2022-09-12T01:38:35;5.73;;;5.13;;
15708;SDS011;7954;51.914;8.420;2022-09-12T01:41:08;6.23;;;5.73;;
15708;SDS011;7954;51.914;8.420;2022-09-12T01:43:46;6.40;;;5.90;;
15708;SDS011;7954;51.914;8.420;2022-09-12T01:46:21;7.60;;;6.00;;
15708;SDS011;7954;51.914;8.420;2022-09-12T01:48:58;6.43;;;5.93;;
15708;SDS011;7954;51.914;8.420;2022-09-12T01:51:30;6.27;;;5.77;;
15708;SDS011;7954;51.914;8.420;2022-09-12T01:54:04;6.27;;;5.77;;
15708;SDS011;7954;51.914;8.420;2022-09-12T01:56:37;6.30;;;5.80;;
15708;SDS011;7954;51.914;8.420;2022-09-12T01:59:09;6.60;;;6.00;;
15708;SDS011;7954;51.914;8.420;2022-09-12T02:01:43;5.70;;;5.30;;
15708;SDS011;7954;51.914;8.420;2022-09-12T02:04:15;6.47;;;5.87;;
15708;SDS011;7954;51.914;8.420;2022-09-12T02:06:47;6.20;;;5.70;;
15708;SDS011;7954;51.914;8.420;2022-09-12T02:09:19;6.70;;;6.10;;
15708;SDS011;7954;51.914;8.420;2022-09-12T02:11:51;6.30;;;5.80;;
15708;SDS011;7954;51.914;8.420;2022-09-12T02:14:22;5.97;;;5.47;;
15708;SDS011;7954;51.914;8.420;2022-09-12T02:16:55;6.47;;;5.97;;
15708;SDS011;7954;51.914;8.420;2022-09-12T02:19:28;6.37;;;5.87;;
15708;SDS011;7954;51.914;8.420;2022-09-12T02:22:01;6.63;;;6.13;;
15708;SDS011;7954;51.914;8.420;2022-09-12T02:24:34;6.53;;;5.83;;
15708;SDS011;7954;51.914;8.420;2022-09-12T02:27:07;6.30;;;5.80;;
15708;SDS011;7954;51.914;8.420;2022-09-12T02:29:37;6.33;;;5.83;;
15708;SDS011;7954;51.914;8.420;2022-09-12T02:32:08;6.10;;;5.60;;
15708;SDS011;7954;51.914;8.420;2022-09-12T02:34:50;6.40;;;5.90;;
15708;SDS011;7954;51.914;8.420;2022-09-12T02:37:28;6.83;;;6.13;;
15708;SDS011;7954;51.914;8.420;2022-09-12T02:40:05;5.87;;;5.40;;
15708;SDS011;7954;51.914;8.420;2022-09-12T02:42:35;6.10;;;5.60;;
15708;SDS011;7954;51.914;8.420;2022-09-12T02:45:04;6.33;;;5.83;;
15708;SDS011;7954;51.914;8.420;2022-09-12T02:47:35;6.23;;;5.73;;
15708;SDS011;7954;51.914;8.420;2022-09-12T02:50:06;5.77;;;5.33;;
15708;SDS011;7954;51.914;8.420;2022-09-12T02:52:35;6.83;;;6.30;;
15708;SDS011;7954;51.914;8.420;2022-09-12T02:55:04;6.00;;;5.50;;
15708;SDS011;7954;51.914;8.420;2022-09-12T02:57:33;5.67;;;5.27;;
15708;SDS011;7954;51.914;8.420;2022-09-12T03:00:01;6.77;;;6.07;;
15708;SDS011;7954;51.914;8.420;2022-09-12T03:02:32;5.60;;;5.20;;
15708;SDS011;7954;51.914;8.420;2022-09-12T03:05:22;6.33;;;5.73;;
15708;SDS011;7954;51.914;8.420;2022-09-12T03:10:43;5.93;;;5.43;;
15708;SDS011;7954;51.914;8.420;2022-09-12T03:13:23;7.30;;;6.60;;
15708;SDS011;7954;51.914;8.420;2022-09-12T03:16:01;6.30;;;5.80;;
15708;SDS011;7954;51.914;8.420;2022-09-12T03:18:45;6.67;;;6.07;;
15708;SDS011;7954;51.914;8.420;2022-09-12T03:21:21;6.20;;;5.70;;
15708;SDS011;7954;51.914;8.420;2022-09-12T03:23:56;6.80;;;6.20;;
15708;SDS011;7954;51.914;8.420;2022-09-12T03:26:31;6.20;;;5.70;;
15708;SDS011;7954;51.914;8.420;2022-09-12T03:29:02;5.80;;;5.30;;
15708;SDS011;7954;51.914;8.420;2022-09-12T03:31:32;6.30;;;5.80;;
15708;SDS011;7954;51.914;8.420;2022-09-12T03:34:02;5.93;;;5.43;;
15708;SDS011;7954;51.914;8.420;2022-09-12T03:36:31;6.50;;;5.90;;
15708;SDS011;7954;51.914;8.420;2022-09-12T03:38:59;5.87;;;5.37;;
15708;SDS011;7954;51.914;8.420;2022-09-12T03:41:27;5.77;;;5.30;;
15708;SDS011;7954;51.914;8.420;2022-09-12T03:43:55;6.37;;;5.83;;
15708;SDS011;7954;51.914;8.420;2022-09-12T03:46:23;5.63;;;5.13;;
15708;SDS011;7954;51.914;8.420;2022-09-12T03:48:51;6.00;;;5.50;;
15708;SDS011;7954;51.914;8.420;2022-09-12T03:51:20;7.33;;;6.73;;
15708;SDS011;7954;51.914;8.420;2022-09-12T03:53:48;6.17;;;5.67;;
15708;SDS011;7954;51.914;8.420;2022-09-12T03:56:16;6.47;;;5.87;;
15708;SDS011;7954;51.914;8.420;2022-09-12T03:58:45;6.50;;;5.90;;
15708;SDS011;7954;51.914;8.420;2022-09-12T04:01:14;6.27;;;5.77;;
15708;SDS011;7954;51.914;8.420;2022-09-12T04:03:43;5.50;;;5.10;;
15708;SDS011;7954;51.914;8.420;2022-09-12T04:06:13;6.37;;;5.87;;
15708;SDS011;7954;51.914;8.420;2022-09-12T04:08:46;5.97;;;5.37;;
15708;SDS011;7954;51.914;8.420;2022-09-12T04:11:17;6.33;;;5.73;;
15708;SDS011;7954;51.914;8.420;2022-09-12T04:13:47;6.23;;;5.73;;
15708;SDS011;7954;51.914;8.420;2022-09-12T04:16:15;6.23;;;5.63;;
15708;SDS011;7954;51.914;8.420;2022-09-12T04:18:44;7.23;;;6.53;;
15708;SDS011;7954;51.914;8.420;2022-09-12T04:21:13;6.03;;;5.43;;
15708;SDS011;7954;51.914;8.420;2022-09-12T04:23:44;6.50;;;5.90;;
15708;SDS011;7954;51.914;8.420;2022-09-12T04:26:12;6.97;;;6.30;;
15708;SDS011;7954;51.914;8.420;2022-09-12T04:28:40;6.07;;;5.57;;
15708;SDS011;7954;51.914;8.420;2022-09-12T04:31:10;6.67;;;6.07;;
15708;SDS011;7954;51.914;8.420;2022-09-12T04:33:41;7.60;;;6.90;;
15708;SDS011;7954;51.914;8.420;2022-09-12T04:36:09;5.60;;;5.20;;
15708;SDS011;7954;51.914;8.420;2022-09-12T04:38:39;6.30;;;5.80;;
15708;SDS011;7954;51.914;8.420;2022-09-12T04:41:12;6.23;;;5.73;;
15708;SDS011;7954;51.914;8.420;2022-09-12T04:43:41;6.40;;;5.80;;
15708;SDS011;7954;51.914;8.420;2022-09-12T04:46:09;6.73;;;6.13;;
15708;SDS011;7954;51.914;8.420;2022-09-12T04:48:39;6.03;;;5.53;;
15708;SDS011;7954;51.914;8.420;2022-09-12T04:51:08;6.63;;;6.03;;
15708;SDS011;7954;51.914;8.420;2022-09-12T04:53:38;6.00;;;5.50;;
15708;SDS011;7954;51.914;8.420;2022-09-12T04:56:07;5.97;;;5.47;;
15708;SDS011;7954;51.914;8.420;2022-09-12T04:58:38;5.60;;;4.97;;
15708;SDS011;7954;51.914;8.420;2022-09-12T05:01:07;7.37;;;6.30;;
15708;SDS011;7954;51.914;8.420;2022-09-12T05:03:37;5.80;;;5.40;;
15708;SDS011;7954;51.914;8.420;2022-09-12T05:06:06;5.73;;;5.23;;
15708;SDS011;7954;51.914;8.420;2022-09-12T05:08:35;6.27;;;5.73;;
15708;SDS011;7954;51.914;8.420;2022-09-12T05:11:05;5.67;;;5.17;;
15708;SDS011;7954;51.914;8.420;2022-09-12T05:13:34;5.83;;;5.40;;
15708;SDS011;7954;51.914;8.420;2022-09-12T05:16:04;5.90;;;5.40;;
15708;SDS011;7954;51.914;8.420;2022-09-12T05:18:34;6.47;;;5.97;;
15708;SDS011;7954;51.914;8.420;2022-09-12T05:21:03;6.70;;;6.10;;
15708;SDS011;7954;51.914;8.420;2022-09-12T05:23:32;6.77;;;6.27;;
15708;SDS011;7954;51.914;8.420;2022-09-12T05:26:00;7.60;;;6.90;;
15708;SDS011;7954;51.914;8.420;2022-09-12T05:28:31;6.90;;;6.30;;
15708;SDS011;7954;51.914;8.420;2022-09-12T05:31:00;6.47;;;5.87;;
15708;SDS011;7954;51.914;8.420;2022-09-12T05:33:32;6.37;;;5.77;;
15708;SDS011;7954;51.914;8.420;2022-09-12T05:36:01;6.43;;;5.93;;
15708;SDS011;7954;51.914;8.420;2022-09-12T05:38:31;6.30;;;5.80;;
15708;SDS011;7954;51.914;8.420;2022-09-12T05:41:01;6.27;;;5.77;;
15708;SDS011;7954;51.914;8.420;2022-09-12T05:43:31;6.10;;;5.57;;
15708;SDS011;7954;51.914;8.420;2022-09-12T05:46:00;7.03;;;6.43;;
15708;SDS011;7954;51.914;8.420;2022-09-12T05:48:28;6.50;;;5.90;;
15708;SDS011;7954;51.914;8.420;2022-09-12T05:51:00;6.87;;;6.27;;
15708;SDS011;7954;51.914;8.420;2022-09-12T05:53:30;6.97;;;6.37;;
15708;SDS011;7954;51.914;8.420;2022-09-12T05:56:02;6.63;;;6.07;;
15708;SDS011;7954;51.914;8.420;2022-09-12T05:58:32;6.60;;;6.00;;
15708;SDS011;7954;51.914;8.420;2022-09-12T06:01:01;7.33;;;6.63;;
15708;SDS011;7954;51.914;8.420;2022-09-12T06:03:31;6.60;;;6.00;;
15708;SDS011;7954;51.914;8.420;2022-09-12T06:06:01;7.47;;;6.77;;
15708;SDS011;7954;51.914;8.420;2022-09-12T06:08:30;6.80;;;6.20;;
15708;SDS011;7954;51.914;8.420;2022-09-12T06:10:59;6.93;;;6.43;;
15708;SDS011;7954;51.914;8.420;2022-09-12T06:13:27;7.50;;;6.87;;
15708;SDS011;7954;51.914;8.420;2022-09-12T06:16:02;6.83;;;6.23;;
15708;SDS011;7954;51.914;8.420;2022-09-12T06:18:31;7.17;;;6.47;;
15708;SDS011;7954;51.914;8.420;2022-09-12T06:21:05;7.03;;;6.33;;
15708;SDS011;7954;51.914;8.420;2022-09-12T06:23:34;7.03;;;6.43;;
15708;SDS011;7954;51.914;8.420;2022-09-12T06:26:02;7.03;;;6.33;;
15708;SDS011;7954;51.914;8.420;2022-09-12T06:28:31;6.77;;;6.20;;
15708;SDS011;7954;51.914;8.420;2022-09-12T06:31:03;7.53;;;6.93;;
15708;SDS011;7954;51.914;8.420;2022-09-12T06:33:32;7.97;;;7.20;;
15708;SDS011;7954;51.914;8.420;2022-09-12T06:36:04;7.90;;;7.07;;
15708;SDS011;7954;51.914;8.420;2022-09-12T06:38:37;7.43;;;6.73;;
15708;SDS011;7954;51.914;8.420;2022-09-12T06:41:06;7.43;;;6.83;;
15708;SDS011;7954;51.914;8.420;2022-09-12T06:43:36;7.40;;;6.70;;
15708;SDS011;7954;51.914;8.420;2022-09-12T06:46:06;7.67;;;6.97;;
15708;SDS011;7954;51.914;8.420;2022-09-12T06:48:34;7.80;;;7.10;;
15708;SDS011;7954;51.914;8.420;2022-09-12T06:51:09;7.13;;;6.60;;
15708;SDS011;7954;51.914;8.420;2022-09-12T06:53:39;7.73;;;7.07;;
15708;SDS011;7954;51.914;8.420;2022-09-12T06:56:08;8.07;;;7.23;;
15708;SDS011;7954;51.914;8.420;2022-09-12T06:58:37;7.57;;;6.87;;
15708;SDS011;7954;51.914;8.420;2022-09-12T07:01:07;7.33;;;6.73;;
15708;SDS011;7954;51.914;8.420;2022-09-12T07:03:36;6.97;;;6.40;;
15708;SDS011;7954;51.914;8.420;2022-09-12T07:06:06;7.27;;;6.63;;
15708;SDS011;7954;51.914;8.420;2022-09-12T07:08:37;6.63;;;6.13;;
15708;SDS011;7954;51.914;8.420;2022-09-12T07:11:10;7.50;;;6.80;;
15708;SDS011;7954;51.914;8.420;2022-09-12T07:13:39;6.50;;;5.90;;
15708;SDS011;7954;51.914;8.420;2022-09-12T07:16:09;7.17;;;6.50;;
15708;SDS011;7954;51.914;8.420;2022-09-12T07:18:48;6.93;;;6.43;;
15708;SDS011;7954;51.914;8.420;2022-09-12T07:21:17;6.90;;;6.30;;
15708;SDS011;7954;51.914;8.420;2022-09-12T07:23:46;6.53;;;5.90;;
15708;SDS011;7954;51.914;8.420;2022-09-12T07:26:15;6.27;;;5.77;;
15708;SDS011;7954;51.914;8.420;2022-09-12T07:28:43;6.27;;;5.77;;
15708;SDS011;7954;51.914;8.420;2022-09-12T07:31:12;5.60;;;5.13;;
15708;SDS011;7954;51.914;8.420;2022-09-12T07:33:42;7.13;;;5.43;;
15708;SDS011;7954;51.914;8.420;2022-09-12T07:36:11;5.80;;;5.30;;
15708;SDS011;7954;51.914;8.420;2022-09-12T07:38:40;5.83;;;5.40;;
15708;SDS011;7954;51.914;8.420;2022-09-12T07:41:11;5.60;;;5.20;;
15708;SDS011;7954;51.914;8.420;2022-09-12T07:43:39;4.70;;;4.37;;
15708;SDS011;7954;51.914;8.420;2022-09-12T07:46:08;5.57;;;5.07;;
15708;SDS011;7954;51.914;8.420;2022-09-12T07:48:37;5.23;;;4.83;;
15708;SDS011;7954;51.914;8.420;2022-09-12T07:51:06;5.97;;;5.30;;
15708;SDS011;7954;51.914;8.420;2022-09-12T07:53:36;6.03;;;5.43;;
15708;SDS011;7954;51.914;8.420;2022-09-12T07:56:06;5.57;;;5.17;;
15708;SDS011;7954;51.914;8.420;2022-09-12T07:58:38;5.30;;;4.83;;
15708;SDS011;7954;51.914;8.420;2022-09-12T08:01:07;7.57;;;4.80;;
15708;SDS011;7954;51.914;8.420;2022-09-12T08:03:37;5.90;;;5.30;;
15708;SDS011;7954;51.914;8.420;2022-09-12T08:06:06;6.47;;;5.97;;
15708;SDS011;7954;51.914;8.420;2022-09-12T08:08:35;5.60;;;5.20;;
15708;SDS011;7954;51.914;8.420;2022-09-12T08:11:04;5.60;;;5.10;;
15708;SDS011;7954;51.914;8.420;2022-09-12T08:13:34;5.80;;;5.30;;
15708;SDS011;7954;51.914;8.420;2022-09-12T08:16:05;5.50;;;5.00;;
15708;SDS011;7954;51.914;8.420;2022-09-12T08:18:34;5.43;;;4.93;;
15708;SDS011;7954;51.914;8.420;2022-09-12T08:21:03;6.27;;;5.77;;
15708;SDS011;7954;51.914;8.420;2022-09-12T08:23:32;4.87;;;4.47;;
15708;SDS011;7954;51.914;8.420;2022-09-12T08:26:01;5.77;;;5.27;;
15708;SDS011;7954;51.914;8.420;2022-09-12T08:28:32;5.83;;;5.40;;
15708;SDS011;7954;51.914;8.420;2022-09-12T08:31:02;5.40;;;5.00;;
15708;SDS011;7954;51.914;8.420;2022-09-12T08:33:32;5.47;;;4.97;;
15708;SDS011;7954;51.914;8.420;2022-09-12T08:36:01;5.83;;;5.30;;
15708;SDS011;7954;51.914;8.420;2022-09-12T08:38:31;4.97;;;4.57;;
15708;SDS011;7954;51.914;8.420;2022-09-12T08:41:01;5.47;;;4.97;;
15708;SDS011;7954;51.914;8.420;2022-09-12T08:43:39;6.83;;;5.23;;
15708;SDS011;7954;51.914;8.420;2022-09-12T08:46:23;5.03;;;4.63;;
15708;SDS011;7954;51.914;8.420;2022-09-12T08:48:58;5.47;;;5.07;;
15708;SDS011;7954;51.914;8.420;2022-09-12T08:51:27;5.57;;;5.07;;
15708;SDS011;7954;51.914;8.420;2022-09-12T08:53:59;5.67;;;5.17;;
15708;SDS011;7954;51.914;8.420;2022-09-12T08:56:30;4.73;;;4.37;;
15708;SDS011;7954;51.914;8.420;2022-09-12T08:59:02;6.20;;;5.70;;
15708;SDS011;7954;51.914;8.420;2022-09-12T09:01:34;5.40;;;4.90;;
15708;SDS011;7954;51.914;8.420;2022-09-12T09:09:57;5.57;;;5.17;;
15708;SDS011;7954;51.914;8.420;2022-09-12T09:12:36;5.13;;;4.73;;
15708;SDS011;7954;51.914;8.420;2022-09-12T09:15:14;5.70;;;5.03;;
15708;SDS011;7954;51.914;8.420;2022-09-12T09:17:51;5.70;;;5.20;;
15708;SDS011;7954;51.914;8.420;2022-09-12T09:20:23;5.53;;;5.10;;
15708;SDS011;7954;51.914;8.420;2022-09-12T09:22:56;6.23;;;5.73;;
15708;SDS011;7954;51.914;8.420;2022-09-12T09:25:44;5.40;;;5.00;;
15708;SDS011;7954;51.914;8.420;2022-09-12T09:28:18;6.20;;;5.70;;
15708;SDS011;7954;51.914;8.420;2022-09-12T09:30:48;5.77;;;5.27;;
15708;SDS011;7954;51.914;8.420;2022-09-12T09:33:21;6.13;;;5.53;;
15708;SDS011;7954;51.914;8.420;2022-09-12T09:35:58;6.50;;;5.63;;
15708;SDS011;7954;51.914;8.420;2022-09-12T09:38:35;5.80;;;5.27;;
15708;SDS011;7954;51.914;8.420;2022-09-12T09:41:21;5.53;;;5.13;;
15708;SDS011;7954;51.914;8.420;2022-09-12T09:43:58;6.07;;;5.57;;
15708;SDS011;7954;51.914;8.420;2022-09-12T09:46:28;5.70;;;5.27;;
15708;SDS011;7954;51.914;8.420;2022-09-12T09:48:58;5.60;;;5.10;;
15708;SDS011;7954;51.914;8.420;2022-09-12T09:51:32;6.13;;;5.63;;
15708;SDS011;7954;51.914;8.420;2022-09-12T09:54:03;5.73;;;5.13;;
15708;SDS011;7954;51.914;8.420;2022-09-12T09:56:39;6.03;;;5.53;;
15708;SDS011;7954;51.914;8.420;2022-09-12T09:59:10;8.57;;;5.90;;
15708;SDS011;7954;51.914;8.420;2022-09-12T10:01:42;6.17;;;5.67;;
15708;SDS011;7954;51.914;8.420;2022-09-12T10:04:18;5.77;;;5.27;;
15708;SDS011;7954;51.914;8.420;2022-09-12T10:06:49;7.13;;;6.43;;
15708;SDS011;7954;51.914;8.420;2022-09-12T10:09:21;5.93;;;5.43;;
15708;SDS011;7954;51.914;8.420;2022-09-12T10:11:51;6.07;;;5.57;;
15708;SDS011;7954;51.914;8.420;2022-09-12T10:17:24;6.60;;;6.00;;
15708;SDS011;7954;51.914;8.420;2022-09-12T10:20:01;5.30;;;4.90;;
15708;SDS011;7954;51.914;8.420;2022-09-12T10:22:47;6.07;;;5.57;;
15708;SDS011;7954;51.914;8.420;2022-09-12T10:25:16;6.23;;;5.73;;
15708;SDS011;7954;51.914;8.420;2022-09-12T10:27:51;6.40;;;5.80;;
15708;SDS011;7954;51.914;8.420;2022-09-12T10:30:22;6.10;;;5.50;;
15708;SDS011;7954;51.914;8.420;2022-09-12T10:32:55;7.17;;;6.33;;
15708;SDS011;7954;51.914;8.420;2022-09-12T10:35:28;6.87;;;6.27;;
15708;SDS011;7954;51.914;8.420;2022-09-12T10:38:09;6.57;;;5.97;;
15708;SDS011;7954;51.914;8.420;2022-09-12T10:40:43;6.57;;;5.97;;
15708;SDS011;7954;51.914;8.420;2022-09-12T10:43:16;6.87;;;6.37;;
15708;SDS011;7954;51.914;8.420;2022-09-12T10:45:45;6.33;;;5.73;;
15708;SDS011;7954;51.914;8.420;2022-09-12T10:48:24;6.90;;;6.30;;
15708;SDS011;7954;51.914;8.420;2022-09-12T10:51:04;6.73;;;6.13;;
15708;SDS011;7954;51.914;8.420;2022-09-12T10:53:38;6.00;;;5.47;;
15708;SDS011;7954;51.914;8.420;2022-09-12T10:56:08;6.90;;;6.30;;
15708;SDS011;7954;51.914;8.420;2022-09-12T10:58:48;5.93;;;5.43;;
15708;SDS011;7954;51.914;8.420;2022-09-12T11:01:29;5.50;;;5.10;;
15708;SDS011;7954;51.914;8.420;2022-09-12T11:07:07;6.37;;;5.77;;
15708;SDS011;7954;51.914;8.420;2022-09-12T11:09:49;5.37;;;4.87;;
15708;SDS011;7954;51.914;8.420;2022-09-12T11:12:24;5.60;;;5.10;;
15708;SDS011;7954;51.914;8.420;2022-09-12T11:15:00;5.43;;;4.80;;
15708;SDS011;7954;51.914;8.420;2022-09-12T11:17:40;5.70;;;5.20;;
15708;SDS011;7954;51.914;8.420;2022-09-12T11:20:20;6.70;;;6.10;;
15708;SDS011;7954;51.914;8.420;2022-09-12T11:23:27;5.53;;;5.03;;
15708;SDS011;7954;51.914;8.420;2022-09-12T11:26:21;6.07;;;5.57;;
15708;SDS011;7954;51.914;8.420;2022-09-12T11:29:02;5.27;;;4.87;;
15708;SDS011;7954;51.914;8.420;2022-09-12T11:31:45;6.30;;;5.70;;
15708;SDS011;7954;51.914;8.420;2022-09-12T11:34:32;6.10;;;5.60;;
15708;SDS011;7954;51.914;8.420;2022-09-12T11:37:11;6.77;;;6.17;;
15708;SDS011;7954;51.914;8.420;2022-09-12T11:39:49;6.23;;;5.63;;
15708;SDS011;7954;51.914;8.420;2022-09-12T11:42:22;5.50;;;5.00;;
15708;SDS011;7954;51.914;8.420;2022-09-12T11:44:57;6.23;;;5.63;;
15708;SDS011;7954;51.914;8.420;2022-09-12T11:47:31;7.13;;;6.53;;
15708;SDS011;7954;51.914;8.420;2022-09-12T11:50:02;5.43;;;5.03;;
15708;SDS011;7954;51.914;8.420;2022-09-12T11:52:32;6.17;;;5.70;;
15708;SDS011;7954;51.914;8.420;2022-09-12T11:55:06;5.63;;;5.13;;
15708;SDS011;7954;51.914;8.420;2022-09-12T11:57:43;4.97;;;4.50;;
15708;SDS011;7954;51.914;8.420;2022-09-12T12:00:15;5.13;;;4.63;;
15708;SDS011;7954;51.914;8.420;2022-09-12T12:02:47;5.83;;;5.03;;
15708;SDS011;7954;51.914;8.420;2022-09-12T12:05:23;4.50;;;4.10;;
15708;SDS011;7954;51.914;8.420;2022-09-12T12:07:55;6.87;;;6.17;;
15708;SDS011;7954;51.914;8.420;2022-09-12T12:10:28;6.37;;;5.20;;
15708;SDS011;7954;51.914;8.420;2022-09-12T12:13:01;5.37;;;4.87;;
15708;SDS011;7954;51.914;8.420;2022-09-12T12:15:39;4.43;;;4.03;;
15708;SDS011;7954;51.914;8.420;2022-09-12T12:18:14;4.70;;;4.10;;
15708;SDS011;7954;51.914;8.420;2022-09-12T12:20:45;4.77;;;4.27;;
15708;SDS011;7954;51.914;8.420;2022-09-12T12:23:21;4.40;;;4.00;;
15708;SDS011;7954;51.914;8.420;2022-09-12T12:25:54;4.60;;;4.20;;
15708;SDS011;7954;51.914;8.420;2022-09-12T12:31:24;3.70;;;3.40;;
15708;SDS011;7954;51.914;8.420;2022-09-12T12:34:03;5.00;;;4.50;;
15708;SDS011;7954;51.914;8.420;2022-09-12T12:36:46;4.67;;;4.23;;
15708;SDS011;7954;51.914;8.420;2022-09-12T12:48:51;3.87;;;3.57;;
15708;SDS011;7954;51.914;8.420;2022-09-12T12:51:25;4.30;;;4.00;;
15708;SDS011;7954;51.914;8.420;2022-09-12T12:54:00;4.18;;;3.83;;
15708;SDS011;7954;51.914;8.420;2022-09-12T12:56:34;3.92;;;3.42;;
15708;SDS011;7954;51.914;8.420;2022-09-12T12:59:16;3.60;;;3.30;;
15708;SDS011;7954;51.914;8.420;2022-09-12T13:01:48;3.22;;;2.92;;
15708;SDS011;7954;51.914;8.420;2022-09-12T13:04:21;3.90;;;3.60;;
15708;SDS011;7954;51.914;8.420;2022-09-12T13:06:56;3.60;;;3.30;;
15708;SDS011;7954;51.914;8.420;2022-09-12T13:09:33;3.20;;;3.00;;
15708;SDS011;7954;51.914;8.420;2022-09-12T13:12:06;3.47;;;3.03;;
15708;SDS011;7954;51.914;8.420;2022-09-12T13:14:47;2.83;;;2.63;;
15708;SDS011;7954;51.914;8.420;2022-09-12T13:17:20;3.42;;;3.13;;
15708;SDS011;7954;51.914;8.420;2022-09-12T13:19:52;4.22;;;3.42;;
15708;SDS011;7954;51.914;8.420;2022-09-12T13:22:51;3.90;;;3.60;;
15708;SDS011;7954;51.914;8.420;2022-09-12T13:25:22;3.50;;;3.20;;
15708;SDS011;7954;51.914;8.420;2022-09-12T13:30:47;3.75;;;2.95;;
15708;SDS011;7954;51.914;8.420;2022-09-12T13:33:24;3.15;;;2.67;;
15708;SDS011;7954;51.914;8.420;2022-09-12T13:38:56;2.90;;;2.70;;
15708;SDS011;7954;51.914;8.420;2022-09-12T13:41:43;4.43;;;3.25;;
15708;SDS011;7954;51.914;8.420;2022-09-12T13:44:21;2.58;;;2.38;;
15708;SDS011;7954;51.914;8.420;2022-09-12T13:46:52;2.50;;;2.30;;
15708;SDS011;7954;51.914;8.420;2022-09-12T13:49:26;2.20;;;2.10;;
15708;SDS011;7954;51.914;8.420;2022-09-12T13:51:59;2.53;;;2.33;;
15708;SDS011;7954;51.914;8.420;2022-09-12T13:54:29;2.85;;;2.60;;
15708;SDS011;7954;51.914;8.420;2022-09-12T13:56:59;3.60;;;2.45;;
15708;SDS011;7954;51.914;8.420;2022-09-12T13:59:27;2.67;;;2.47;;
15708;SDS011;7954;51.914;8.420;2022-09-12T14:02:16;2.95;;;2.75;;
15708;SDS011;7954;51.914;8.420;2022-09-12T14:04:46;3.10;;;2.58;;
15708;SDS011;7954;51.914;8.420;2022-09-12T14:07:31;3.53;;;2.13;;
15708;SDS011;7954;51.914;8.420;2022-09-12T14:10:00;3.05;;;2.60;;
15708;SDS011;7954;51.914;8.420;2022-09-12T14:12:33;2.45;;;2.25;;
15708;SDS011;7954;51.914;8.420;2022-09-12T14:15:05;2.65;;;2.45;;
15708;SDS011;7954;51.914;8.420;2022-09-12T14:17:47;2.45;;;2.25;;
15708;SDS011;7954;51.914;8.420;2022-09-12T14:20:17;4.45;;;2.55;;
15708;SDS011;7954;51.914;8.420;2022-09-12T14:22:48;2.30;;;2.10;;
15708;SDS011;7954;51.914;8.420;2022-09-12T14:25:17;2.42;;;2.33;;
15708;SDS011;7954;51.914;8.420;2022-09-12T14:27:49;2.20;;;2.10;;
15708;SDS011;7954;51.914;8.420;2022-09-12T14:30:21;2.42;;;2.22;;
15708;SDS011;7954;51.914;8.420;2022-09-12T14:33:03;2.20;;;2.00;;
15708;SDS011;7954;51.914;8.420;2022-09-12T14:35:47;1.92;;;1.83;;
15708;SDS011;7954;51.914;8.420;2022-09-12T14:38:29;2.90;;;2.50;;
15708;SDS011;7954;51.914;8.420;2022-09-12T14:41:05;2.20;;;2.10;;
15708;SDS011;7954;51.914;8.420;2022-09-12T14:43:36;2.45;;;2.20;;
15708;SDS011;7954;51.914;8.420;2022-09-12T14:46:06;2.40;;;2.20;;
15708;SDS011;7954;51.914;8.420;2022-09-12T14:48:45;2.38;;;2.17;;
15708;SDS011;7954;51.914;8.420;2022-09-12T14:51:19;2.45;;;2.20;;
15708;SDS011;7954;51.914;8.420;2022-09-12T14:53:49;2.53;;;2.33;;
15708;SDS011;7954;51.914;8.420;2022-09-12T14:56:19;2.83;;;2.40;;
15708;SDS011;7954;51.914;8.420;2022-09-12T14:58:47;2.47;;;2.05;;
15708;SDS011;7954;51.914;8.420;2022-09-12T15:01:23;2.55;;;2.30;;
15708;SDS011;7954;51.914;8.420;2022-09-12T15:03:54;2.50;;;2.30;;
15708;SDS011;7954;51.914;8.420;2022-09-12T15:06:26;4.10;;;2.45;;
15708;SDS011;7954;51.914;8.420;2022-09-12T15:08:56;2.40;;;2.20;;
15708;SDS011;7954;51.914;8.420;2022-09-12T15:11:25;2.40;;;2.20;;
15708;SDS011;7954;51.914;8.420;2022-09-12T15:13:54;2.40;;;2.20;;
15708;SDS011;7954;51.914;8.420;2022-09-12T15:16:22;2.13;;;1.90;;
15708;SDS011;7954;51.914;8.420;2022-09-12T15:18:50;3.53;;;2.40;;
15708;SDS011;7954;51.914;8.420;2022-09-12T15:21:20;2.30;;;2.10;;
15708;SDS011;7954;51.914;8.420;2022-09-12T15:23:49;2.00;;;1.90;;
15708;SDS011;7954;51.914;8.420;2022-09-12T15:26:19;3.28;;;2.38;;
15708;SDS011;7954;51.914;8.420;2022-09-12T15:28:48;2.38;;;2.17;;
15708;SDS011;7954;51.914;8.420;2022-09-12T15:31:20;2.40;;;2.20;;
15708;SDS011;7954;51.914;8.420;2022-09-12T15:33:50;2.50;;;2.30;;
15708;SDS011;7954;51.914;8.420;2022-09-12T15:36:21;2.50;;;2.30;;
15708;SDS011;7954;51.914;8.420;2022-09-12T15:38:49;2.35;;;2.15;;
15708;SDS011;7954;51.914;8.420;2022-09-12T15:41:18;2.25;;;2.05;;
15708;SDS011;7954;51.914;8.420;2022-09-12T15:43:48;2.30;;;2.10;;
15708;SDS011;7954;51.914;8.420;2022-09-12T15:46:16;2.42;;;2.13;;
15708;SDS011;7954;51.914;8.420;2022-09-12T15:48:44;2.13;;;2.00;;
15708;SDS011;7954;51.914;8.420;2022-09-12T15:51:13;2.22;;;2.05;;
15708;SDS011;7954;51.914;8.420;2022-09-12T15:53:45;2.38;;;2.17;;
15708;SDS011;7954;51.914;8.420;2022-09-12T15:56:15;2.35;;;2.10;;
15708;SDS011;7954;51.914;8.420;2022-09-12T15:58:44;3.80;;;2.50;;
15708;SDS011;7954;51.914;8.420;2022-09-12T16:01:24;2.65;;;2.22;;
15708;SDS011;7954;51.914;8.420;2022-09-12T16:03:53;2.25;;;2.05;;
15708;SDS011;7954;51.914;8.420;2022-09-12T16:06:22;2.50;;;2.30;;
15708;SDS011;7954;51.914;8.420;2022-09-12T16:08:52;2.53;;;2.33;;